Phil Campbell, Alabama
Current Conditions -  °F | °C
As of 4:28 PM on Friday 31 Oct 2014 (Local Time) from K1M4 Reporting Station
Broken Clouds Broken Clouds  
Wind Chill: 42°   Ceiling: 3100
Heat Index: 46°   Visibility: 8mi
Dew Point: 45°   Wind: 9mph
Humidity: 93%   Direction: 350°N
Pressure: 30.07"   Gusts: NA
Location:  34.35°N, 87.71°W
Report Text: K1M4 312128Z AUTO 35008KT 8SM FEW025 BKN031 BKN041 08/07 A3007 RMK AO2 RAB2058E23 P0001
Loading
Personal Weather Stations






























Interactive Weather Map
Tropical Storm Tracking
New forecast layout! Learn more

10-Day Weather Forecast

Advertisements
Track Severe Weather on mobile